createdAt,value
2022-10-08T00:00:55.305Z,101261.56
2022-10-08T00:03:59.627Z,101252.59
2022-10-08T00:07:02.722Z,101248.25
2022-10-08T00:10:07.624Z,101253.41
2022-10-08T00:13:10.074Z,101246.41
2022-10-08T00:16:14.602Z,101257.59
2022-10-08T00:19:17.257Z,101246.06
2022-10-08T00:22:20.385Z,101248.66
2022-10-08T00:25:22.901Z,101245.09
2022-10-08T00:28:25.853Z,101239.59
2022-10-08T00:31:41.021Z,101239.75
2022-10-08T00:34:44.156Z,101234.38
2022-10-08T00:37:46.907Z,101224.78
2022-10-08T00:40:50.845Z,101230.75
2022-10-08T00:43:57.730Z,101222.63
2022-10-08T00:47:05.821Z,101215.78
2022-10-08T00:50:10.920Z,101214.94
2022-10-08T00:53:14.332Z,101219.41
2022-10-08T00:56:16.981Z,101219.34
2022-10-08T00:59:21.381Z,101218.91
2022-10-08T01:02:23.869Z,101210.22
2022-10-08T01:05:35.213Z,101201.22
2022-10-08T01:08:49.811Z,101194.84
2022-10-08T01:12:24.201Z,101199.44
2022-10-08T01:15:42.295Z,101196.13
2022-10-08T01:19:09.907Z,101202.03
2022-10-08T01:22:30.633Z,101198.53
2022-10-08T01:25:45.705Z,101192.25
2022-10-08T01:29:05.571Z,101185.84
2022-10-08T01:32:17.983Z,101184.91
2022-10-08T01:35:26.293Z,101178.72
2022-10-08T01:38:33.534Z,101182.28
2022-10-08T01:41:36.329Z,101177.22
2022-10-08T01:44:47.993Z,101170.81
2022-10-08T01:47:51.778Z,101179.53
2022-10-08T01:51:14.931Z,101174.31
2022-10-08T01:54:18.684Z,101175.16
2022-10-08T01:57:24.824Z,101165.25
2022-10-08T02:00:27.946Z,101162.50
2022-10-08T02:03:31.128Z,101162.44
2022-10-08T02:06:37.230Z,101162.37
2022-10-08T02:09:44.450Z,101155.37
2022-10-08T02:12:47.429Z,101162.28
2022-10-08T02:16:11.302Z,101165.94
2022-10-08T02:19:26.519Z,101158.25
2022-10-08T02:22:44.986Z,101158.41
2022-10-08T02:26:00.354Z,101158.34
2022-10-08T02:29:16.286Z,101156.53
2022-10-08T02:32:24.165Z,101158.34
2022-10-08T02:35:34.942Z,101158.34
2022-10-08T02:38:44.847Z,101156.41
2022-10-08T02:41:54.919Z,101148.31
2022-10-08T02:45:07.577Z,101152.63
2022-10-08T02:48:16.421Z,101152.47
2022-10-08T02:51:21.228Z,101148.09
2022-10-08T02:54:24.446Z,101148.09
2022-10-08T02:57:41.148Z,101147.94
2022-10-08T03:00:57.251Z,101155.59
2022-10-08T03:04:07.956Z,101147.66
2022-10-08T03:07:15.280Z,101148.69
2022-10-08T03:10:19.961Z,101139.22
2022-10-08T03:13:24.532Z,101142.66
2022-10-08T03:16:37.931Z,101142.50
2022-10-08T03:19:42.584Z,101141.25
2022-10-08T03:22:46.124Z,101143.94
2022-10-08T03:25:49.842Z,101137.75
2022-10-08T03:28:53.281Z,101138.34
2022-10-08T03:31:56.077Z,101139.91
2022-10-08T03:34:58.884Z,101144.91
2022-10-08T03:38:02.575Z,101137.72
2022-10-08T03:41:05.260Z,101140.34
2022-10-08T03:44:09.744Z,101139.44
2022-10-08T03:47:12.132Z,101141.31
2022-10-08T03:50:15.286Z,101139.78
2022-10-08T03:53:19.087Z,101140.75
2022-10-08T03:56:25.971Z,101133.00
2022-10-08T03:59:28.753Z,101125.34
2022-10-08T04:02:32.686Z,101134.12
2022-10-08T04:05:36.191Z,101134.34
2022-10-08T04:08:39.907Z,101129.34
2022-10-08T04:11:43.249Z,101130.00
2022-10-08T04:14:46.744Z,101132.84
2022-10-08T04:17:50.831Z,101139.75
2022-10-08T04:21:00.571Z,101136.34
2022-10-08T04:24:03.921Z,101133.88
2022-10-08T04:27:06.794Z,101124.87
2022-10-08T04:30:10.327Z,101135.44
2022-10-08T04:33:13.928Z,101125.34
2022-10-08T04:36:22.824Z,101130.62
2022-10-08T04:39:25.758Z,101122.72
2022-10-08T04:42:28.703Z,101123.56
2022-10-08T04:45:31.460Z,101121.03
2022-10-08T04:48:36.921Z,101133.06
2022-10-08T04:51:46.320Z,101123.34
2022-10-08T04:54:50.642Z,101132.25
2022-10-08T04:57:58.421Z,101134.84
2022-10-08T05:01:11.461Z,101125.19
2022-10-08T05:04:15.536Z,101126.91
2022-10-08T05:07:20.056Z,101142.44
2022-10-08T05:10:25.049Z,101132.78
2022-10-08T05:13:28.270Z,101133.81
2022-10-08T05:16:33.505Z,101133.22
2022-10-08T05:19:38.438Z,101131.87
2022-10-08T05:22:42.459Z,101134.84
2022-10-08T05:25:52.339Z,101136.91
2022-10-08T05:29:05.478Z,101133.16
2022-10-08T05:32:08.928Z,101140.66
2022-10-08T05:35:11.617Z,101135.97
2022-10-08T05:38:15.212Z,101135.50
2022-10-08T05:41:31.360Z,101134.12
2022-10-08T05:44:37.962Z,101144.34
2022-10-08T05:47:49.413Z,101152.00
2022-10-08T05:50:56.367Z,101145.53
2022-10-08T05:54:04.205Z,101141.38
2022-10-08T05:57:19.468Z,101145.13
2022-10-08T06:00:25.620Z,101148.69
2022-10-08T06:03:29.448Z,101155.56
2022-10-08T06:06:32.807Z,101158.34
2022-10-08T06:09:39.427Z,101169.28
2022-10-08T06:12:43.009Z,101165.97
2022-10-08T06:15:56.904Z,101156.38
2022-10-08T06:19:08.192Z,101162.09
2022-10-08T06:22:13.425Z,101158.06
2022-10-08T06:25:16.900Z,101153.94
2022-10-08T06:28:24.120Z,101150.78
2022-10-08T06:31:35.042Z,101155.06
2022-10-08T06:34:48.603Z,101153.66
2022-10-08T06:37:54.824Z,101158.03
2022-10-08T06:41:00.762Z,101158.06
2022-10-08T06:44:05.961Z,101156.66
2022-10-08T06:47:17.691Z,101161.41
2022-10-08T06:50:21.905Z,101169.03
2022-10-08T06:53:25.242Z,101172.09
2022-10-08T06:56:30.447Z,101174.91
2022-10-08T06:59:34.688Z,101173.91
2022-10-08T07:02:44.976Z,101172.22
2022-10-08T07:05:48.636Z,101175.44
2022-10-08T07:08:56.467Z,101178.06
2022-10-08T07:12:13.646Z,101171.91
2022-10-08T07:15:20.483Z,101170.09
2022-10-08T07:18:23.938Z,101164.16
2022-10-08T07:21:30.455Z,101170.56
2022-10-08T07:24:37.410Z,101166.94
2022-10-08T07:27:44.731Z,101165.84
2022-10-08T07:31:07.633Z,101164.91
2022-10-08T07:34:12.296Z,101167.25
2022-10-08T07:37:21.654Z,101161.75
2022-10-08T07:40:26.740Z,101166.06
2022-10-08T07:43:31.974Z,101172.87
2022-10-08T07:46:37.223Z,101176.47
2022-10-08T07:49:40.493Z,101160.97
2022-10-08T07:52:47.910Z,101163.88
2022-10-08T07:55:58.908Z,101166.56
2022-10-08T07:59:04.662Z,101165.72
2022-10-08T08:02:09.690Z,101167.38
2022-10-08T08:05:12.904Z,101167.50
2022-10-08T08:08:24.919Z,101163.97
2022-10-08T08:11:30.387Z,101161.50
2022-10-08T08:14:37.091Z,101163.50
2022-10-08T08:17:46.174Z,101160.22
2022-10-08T08:21:08.398Z,101156.91
2022-10-08T08:24:15.537Z,101153.41
2022-10-08T08:27:19.056Z,101149.78
2022-10-08T08:30:23.423Z,101148.75
2022-10-08T08:33:28.044Z,101145.91
2022-10-08T08:36:48.469Z,101148.84
2022-10-08T08:39:57.682Z,101146.56
2022-10-08T08:43:01.430Z,101150.69
2022-10-08T08:46:04.845Z,101144.19
2022-10-08T08:49:19.888Z,101143.09
2022-10-08T08:52:27.803Z,101145.47
2022-10-08T08:55:45.406Z,101138.09
2022-10-08T08:59:21.403Z,101138.00
2022-10-08T09:02:34.722Z,101129.09
2022-10-08T09:05:46.534Z,101134.59
2022-10-08T09:09:07.560Z,101137.22
2022-10-08T09:12:37.612Z,101133.81
2022-10-08T09:15:43.047Z,101136.62
2022-10-08T09:18:57.319Z,101137.66
2022-10-08T09:22:16.786Z,101130.09
2022-10-08T09:25:32.894Z,101134.00
2022-10-08T09:28:40.627Z,101131.75
2022-10-08T09:31:48.103Z,101128.47
2022-10-08T09:34:55.867Z,101129.34
2022-10-08T09:38:05.655Z,101134.53
2022-10-08T09:41:19.853Z,101136.16
2022-10-08T09:44:40.978Z,101124.69
2022-10-08T09:48:18.442Z,101122.91
2022-10-08T09:51:21.693Z,101127.25
2022-10-08T09:54:29.962Z,101111.53
2022-10-08T09:58:03.025Z,101108.06
2022-10-08T10:01:18.459Z,101108.97
2022-10-08T10:04:37.471Z,101105.38
2022-10-08T10:07:47.195Z,101101.03
2022-10-08T10:10:50.823Z,101101.87
2022-10-08T10:13:56.561Z,101095.53
2022-10-08T10:17:14.173Z,101083.31
2022-10-08T10:20:27.412Z,101080.63
2022-10-08T10:23:44.403Z,101078.91
2022-10-08T10:26:54.642Z,101068.28
2022-10-08T10:30:05.728Z,101063.87
2022-10-08T10:33:25.435Z,101062.97
2022-10-08T10:36:39.156Z,101058.38
2022-10-08T10:39:44.139Z,101053.97
2022-10-08T10:43:09.435Z,101051.38
2022-10-08T10:46:19.530Z,101049.72
2022-10-08T10:49:31.531Z,101045.28
2022-10-08T10:52:45.315Z,101046.19
2022-10-08T10:56:10.840Z,101041.75
2022-10-08T10:59:45.311Z,101034.66
2022-10-08T11:03:00.428Z,101030.25
2022-10-08T11:06:23.423Z,101025.84
2022-10-08T11:09:53.417Z,101021.44
2022-10-08T11:13:11.312Z,101021.38
2022-10-08T11:16:56.410Z,101016.13
2022-10-08T11:20:24.703Z,101007.28
2022-10-08T11:24:04.428Z,101011.69
2022-10-08T11:27:16.503Z,101008.19
2022-10-08T11:30:32.738Z,101004.62
2022-10-08T11:33:43.508Z,101000.19
2022-10-08T11:37:04.212Z,101001.97
2022-10-08T11:40:33.853Z,100991.25
2022-10-08T11:43:47.576Z,100993.94
2022-10-08T11:47:41.571Z,100989.50
2022-10-08T11:50:49.481Z,100979.81
2022-10-08T11:54:13.472Z,100980.66
2022-10-08T11:57:25.590Z,100972.69
2022-10-08T12:00:47.457Z,100969.16
2022-10-08T12:04:14.347Z,100963.88
2022-10-08T12:07:33.449Z,100972.63
2022-10-08T12:10:40.400Z,100962.91
2022-10-08T12:14:16.378Z,100959.44
2022-10-08T12:17:25.434Z,100964.72
2022-10-08T12:20:38.372Z,100952.31
2022-10-08T12:23:41.763Z,100957.56
2022-10-08T12:27:24.674Z,100947.03
2022-10-08T12:30:51.127Z,100950.59
2022-10-08T12:34:12.010Z,100943.56
2022-10-08T12:37:33.862Z,100940.91
2022-10-08T12:40:45.758Z,100945.31
2022-10-08T12:43:52.040Z,100935.53
2022-10-08T12:47:07.537Z,100931.16
2022-10-08T12:50:44.397Z,100933.81
2022-10-08T12:53:54.459Z,100925.88
2022-10-08T12:57:16.889Z,100926.78
2022-10-08T13:00:26.544Z,100921.47
2022-10-08T13:03:34.442Z,100923.25
2022-10-08T13:06:42.613Z,100919.72
2022-10-08T13:09:47.611Z,100914.41
2022-10-08T13:13:38.130Z,100908.22
2022-10-08T13:16:50.363Z,100912.63
2022-10-08T13:20:07.166Z,100904.69
2022-10-08T13:23:39.672Z,100907.31
2022-10-08T13:26:53.545Z,100902.03
2022-10-08T13:30:28.984Z,100903.78
2022-10-08T13:33:39.128Z,100904.69
2022-10-08T13:37:01.789Z,100903.81
2022-10-08T13:40:10.841Z,100909.13
2022-10-08T13:43:15.416Z,100902.91
2022-10-08T13:46:21.414Z,100902.91
2022-10-08T13:49:30.797Z,100894.09
2022-10-08T13:52:42.693Z,100896.72
2022-10-08T13:55:48.328Z,100893.19
2022-10-08T13:58:56.063Z,100887.91
2022-10-08T14:02:02.451Z,100888.78
2022-10-08T14:05:15.452Z,100885.25
2022-10-08T14:08:32.090Z,100879.06
2022-10-08T14:11:43.561Z,100877.28
2022-10-08T14:14:53.752Z,100879.06
2022-10-08T14:17:58.680Z,100876.34
2022-10-08T14:21:02.094Z,100868.38
2022-10-08T14:24:06.815Z,100871.97
2022-10-08T14:27:10.639Z,100872.81
2022-10-08T14:30:21.804Z,100867.50
2022-10-08T14:33:34.455Z,100869.22
2022-10-08T14:36:43.824Z,100862.16
2022-10-08T14:39:47.093Z,100865.69
2022-10-08T14:42:57.592Z,100861.22
2022-10-08T14:46:04.779Z,100857.72
2022-10-08T14:49:16.414Z,100860.34
2022-10-08T14:52:21.163Z,100855.91
2022-10-08T14:55:37.944Z,100846.19
2022-10-08T14:59:06.753Z,100846.16
2022-10-08T15:02:17.382Z,100852.28
2022-10-08T15:05:20.994Z,100861.06
2022-10-08T15:08:26.429Z,100853.09
2022-10-08T15:11:34.594Z,100856.59
2022-10-08T15:14:39.908Z,100846.91
2022-10-08T15:17:47.590Z,100852.19
2022-10-08T15:20:56.258Z,100852.09
2022-10-08T15:24:07.696Z,100845.88
2022-10-08T15:27:17.266Z,100852.81
2022-10-08T15:30:33.442Z,100843.87
2022-10-08T15:33:47.334Z,100850.84
2022-10-08T15:36:50.308Z,100850.75
2022-10-08T15:39:58.542Z,100849.81
2022-10-08T15:43:04.945Z,100858.56
2022-10-08T15:46:15.043Z,100858.34
2022-10-08T15:49:20.720Z,100859.94
2022-10-08T15:52:30.900Z,100863.31
2022-10-08T15:55:43.417Z,100862.28
2022-10-08T15:58:53.808Z,100860.37
2022-10-08T16:02:04.748Z,100867.28
2022-10-08T16:05:10.446Z,100870.56
2022-10-08T16:08:17.831Z,100862.38
2022-10-08T16:11:36.415Z,100863.06
2022-10-08T16:14:43.184Z,100872.59
2022-10-08T16:17:47.858Z,100872.31
2022-10-08T16:20:57.658Z,100880.09
2022-10-08T16:24:02.598Z,100877.25
2022-10-08T16:27:06.725Z,100886.69
2022-10-08T16:30:21.706Z,100881.22
2022-10-08T16:33:46.367Z,100885.38
2022-10-08T16:37:03.470Z,100890.47
2022-10-08T16:40:17.079Z,100895.72
2022-10-08T16:43:29.336Z,100891.09
2022-10-08T16:46:36.647Z,100889.22
2022-10-08T16:49:58.237Z,100892.62
2022-10-08T16:53:11.496Z,100901.97
2022-10-08T16:56:17.568Z,100899.09
2022-10-08T16:59:37.719Z,100902.47
2022-10-08T17:02:41.665Z,100896.19
2022-10-08T17:05:47.888Z,100900.44
2022-10-08T17:08:52.667Z,100906.47
2022-10-08T17:12:16.518Z,100904.63
2022-10-08T17:15:34.453Z,100902.84
2022-10-08T17:18:46.779Z,100909.84
2022-10-08T17:21:58.402Z,100922.97
2022-10-08T17:25:01.247Z,100918.37
2022-10-08T17:28:11.573Z,100916.47
2022-10-08T17:31:18.859Z,100923.34
2022-10-08T17:34:22.188Z,100934.66
2022-10-08T17:37:28.909Z,100924.84
2022-10-08T17:40:43.638Z,100935.13
2022-10-08T17:44:02.350Z,100939.22
2022-10-08T17:47:11.525Z,100939.94
2022-10-08T17:50:17.557Z,100942.34
2022-10-08T17:53:28.461Z,100949.37
2022-10-08T17:56:34.710Z,100943.13
2022-10-08T17:59:43.866Z,100942.09
2022-10-08T18:02:52.017Z,100937.63
2022-10-08T18:06:04.507Z,100939.25
2022-10-08T18:09:21.202Z,100949.66
2022-10-08T18:12:37.186Z,100951.28
2022-10-08T18:15:47.245Z,100948.53
2022-10-08T18:18:56.496Z,100957.22
2022-10-08T18:22:02.084Z,100957.84
2022-10-08T18:25:21.494Z,100962.78
2022-10-08T18:28:31.984Z,100963.50
2022-10-08T18:31:50.369Z,100969.97
2022-10-08T18:35:00.433Z,100974.09
2022-10-08T18:38:09.463Z,100968.84
2022-10-08T18:41:23.984Z,100968.81
2022-10-08T18:44:30.786Z,100981.69
2022-10-08T18:47:34.314Z,100978.09
2022-10-08T18:50:49.149Z,100982.41
2022-10-08T18:53:59.492Z,100980.13
2022-10-08T18:57:02.949Z,100978.81
2022-10-08T19:00:08.988Z,100991.62
2022-10-08T19:03:34.454Z,100990.53
2022-10-08T19:06:42.595Z,100991.38
2022-10-08T19:09:48.187Z,100994.09
2022-10-08T19:13:00.001Z,100991.38
2022-10-08T19:16:14.529Z,100993.91
2022-10-08T19:19:25.427Z,100995.50
2022-10-08T19:22:36.406Z,100982.69
2022-10-08T19:25:44.086Z,101002.91
2022-10-08T19:28:55.506Z,101011.75
2022-10-08T19:32:02.423Z,101004.66
2022-10-08T19:35:07.456Z,101014.47
2022-10-08T19:38:34.507Z,101008.88
2022-10-08T19:41:48.117Z,101001.22
2022-10-08T19:44:59.879Z,101008.06
2022-10-08T19:48:17.362Z,101005.56
2022-10-08T19:51:23.729Z,101011.50
2022-10-08T19:54:33.207Z,101015.75
2022-10-08T19:57:40.482Z,101007.81
2022-10-08T20:00:50.500Z,100999.75
2022-10-08T20:03:57.722Z,100994.97
2022-10-08T20:07:11.405Z,100992.41
2022-10-08T20:10:28.470Z,101007.44
2022-10-08T20:13:40.771Z,101011.88
2022-10-08T20:16:44.583Z,101005.91
2022-10-08T20:19:47.556Z,101010.16
2022-10-08T20:22:54.226Z,101022.28
2022-10-08T20:26:27.444Z,101025.78
2022-10-08T20:29:34.157Z,101026.69
2022-10-08T20:32:40.469Z,101021.28
2022-10-08T20:35:44.504Z,101022.91
2022-10-08T20:39:00.692Z,101027.25
2022-10-08T20:42:10.715Z,101029.75
2022-10-08T20:45:19.493Z,101037.81
2022-10-08T20:48:24.461Z,101030.66
2022-10-08T20:51:29.600Z,101033.44
2022-10-08T20:54:35.906Z,101023.37
2022-10-08T20:57:40.119Z,101027.88
2022-10-08T21:00:43.265Z,101023.59
2022-10-08T21:03:47.884Z,101012.66
2022-10-08T21:06:53.461Z,101015.00
2022-10-08T21:09:56.681Z,101028.91
2022-10-08T21:12:59.943Z,101036.03
2022-10-08T21:16:06.083Z,101027.63
2022-10-08T21:19:16.623Z,101033.09
2022-10-08T21:22:19.510Z,101036.78
2022-10-08T21:25:23.493Z,101029.03
2022-10-08T21:28:29.476Z,101024.69
2022-10-08T21:31:34.921Z,101033.81
2022-10-08T21:34:39.366Z,101032.38
2022-10-08T21:37:42.275Z,101025.09
2022-10-08T21:40:57.013Z,101013.22
2022-10-08T21:44:02.669Z,101014.44
2022-10-08T21:47:05.782Z,101017.31
2022-10-08T21:50:10.652Z,101018.19
2022-10-08T21:53:15.003Z,101021.59
2022-10-08T21:56:22.839Z,101026.94
2022-10-08T21:59:27.434Z,101013.13
2022-10-08T22:02:32.354Z,101017.56
2022-10-08T22:05:35.427Z,101022.81
2022-10-08T22:08:38.550Z,101037.00
2022-10-08T22:11:41.534Z,101037.09
2022-10-08T22:14:44.160Z,101044.06
2022-10-08T22:17:48.538Z,101043.00
2022-10-08T22:20:51.637Z,101041.88
2022-10-08T22:23:56.714Z,101042.66
2022-10-08T22:27:03.648Z,101033.22
2022-10-08T22:30:08.494Z,101035.72
2022-10-08T22:33:10.960Z,101029.47
2022-10-08T22:36:19.449Z,101038.16
2022-10-08T22:39:22.337Z,101045.81
2022-10-08T22:42:25.238Z,101049.12
2022-10-08T22:45:28.237Z,101044.56
2022-10-08T22:48:32.783Z,101053.06
2022-10-08T22:51:35.922Z,101056.44
2022-10-08T22:54:46.485Z,101050.87
2022-10-08T22:57:49.992Z,101055.75
2022-10-08T23:01:08.399Z,101064.19
2022-10-08T23:04:17.816Z,101064.97
2022-10-08T23:07:22.435Z,101059.34
2022-10-08T23:10:26.165Z,101061.78
2022-10-08T23:13:29.942Z,101067.66
2022-10-08T23:16:33.848Z,101073.81
2022-10-08T23:19:37.605Z,101083.44
2022-10-08T23:22:40.227Z,101078.47
2022-10-08T23:25:53.723Z,101078.97
2022-10-08T23:28:59.315Z,101087.66
2022-10-08T23:32:02.931Z,101078.91
2022-10-08T23:35:05.873Z,101083.31
2022-10-08T23:38:09.715Z,101085.16
2022-10-08T23:41:13.133Z,101079.94
2022-10-08T23:44:16.412Z,101073.81
2022-10-08T23:47:19.771Z,101077.78
2022-10-08T23:50:22.964Z,101077.22
2022-10-08T23:53:31.914Z,101079.72
2022-10-08T23:56:35.139Z,101080.34
2022-10-08T23:59:37.983Z,101081.09
